Data for 12/22/2009

Time Sea-Level Adjusted Pressure Absolute Pressure Temperature Relative Humidity Dew Point Precipitation   
(mb) (inHg) (mb) (inHg) (C) (F) (%) (C) (F) (mm) (in)
10:38 1010 29.83 839 24.78 0.1 32.1 74 -4 24.8 0.435 0.017
10:39 1010 29.83 839 24.78 0 32 74 -4 24.8 0.503 0.02
10:40 1010 29.83 839 24.78 0.1 32.2 74 -4.1 24.7 0.565 0.022
10:41 1010 29.83 839 24.78 0.2 32.3 73 -4.1 24.6 0.633 0.025
10:42 1010 29.83 839 24.78 0.2 32.4 74 -3.9 24.9 0.729 0.029
10:43 1010 29.83 839 24.78 0.3 32.5 73 -4 24.9 0.775 0.031
10:44 1010 29.83 839 24.78 0.4 32.7 73 -3.9 24.9 0.854 0.034
10:45 1010 29.83 839 24.78 0.4 32.8 74 -3.7 25.3 0.95 0.037
10:46 1010 29.83 839 24.78 0.5 32.9 73 -3.9 25.1 1.001 0.039
10:47 1010 29.83 839 24.78 0.5 33 71 -4 24.7 0.99 0.039
10:48 1010 29.83 839 24.78 0.6 33 72 -3.9 25 1.069 0.042
10:49 1010 29.83 839 24.78 0.7 33.2 72 -3.8 25.1 1.137 0.045
10:50 1010 29.83 839 24.78 0.8 33.5 71 -3.8 25.2 1.284 0.051
10:51 1010 29.83 839 24.78 1 33.7 71 -3.7 25.4 1.403 0.055
10:52 1010 29.83 839 24.78 1.2 34.1 71 -3.6 25.6 1.579 0.062
10:53 1010 29.83 839 24.78 1.3 34.4 70 -3.5 25.6 1.686 0.066
10:54 1010 29.83 839 24.78 1.5 34.7 69 -3.5 25.7 1.771 0.07
10:55 1010 29.83 839 24.78 1.5 34.8 69 -3.6 25.6 1.868 0.074
10:56 1010 29.83 839 24.78 1.6 34.8 68 -3.7 25.4 1.896 0.075
10:57 1010 29.83 839 24.78 1.6 34.8 69 -3.5 25.7 1.987 0.078
10:58 1010 29.83 839 24.78 1.6 34.8 69 -3.5 25.8 1.981 0.078
10:59 1010 29.83 839 24.78 1.5 34.7 68 -3.7 25.3 1.89 0.074
11:00 1010 29.83 839 24.78 1.3 34.4 69 -3.8 25.2 1.624 0.064
11:01 1010 29.83 839 24.78 1.2 34.1 71 -3.6 25.6 1.466 0.058
11:02 1010 29.83 839 24.78 1.1 34 71 -3.5 25.7 1.38 0.054
11:03 1010 29.83 839 24.78 1.1 33.9 72 -3.5 25.7 1.362 0.054
11:04 1010 29.83 839 24.78 1 33.8 71 -3.7 25.3 1.317 0.052
11:05 1010 29.83 839 24.78 1 33.8 72 -3.6 25.6 1.238 0.049
11:06 1010 29.83 839 24.78 1 33.8 72 -3.5 25.6 1.21 0.048
11:07 1010 29.83 839 24.78 1.1 34 70 -3.9 25 1.181 0.046
11:08 1010 29.83 839 24.78 1.1 34 71 -3.7 25.4 1.119 0.044
11:09 1010 29.83 839 24.78 1 33.8 70 -3.9 25 1.022 0.04
11:10 1010 29.83 839 24.78 0.8 33.5 71 -3.8 25.1 0.886 0.035
11:11 1010 29.83 839 24.78 0.7 33.2 70 -4.2 24.4 0.783 0.031
11:12 1010 29.83 839 24.78 0.6 33.1 70 -4.3 24.3 0.681 0.027
11:13 1010 29.83 839 24.78 0.5 33 70 -4.3 24.3 0.687 0.027
11:14 1010 29.83 839 24.78 0.6 33.1 71 -4.1 24.6 0.754 0.03
11:15 1010 29.83 839 24.78 0.6 33.2 70 -4.3 24.3 0.758 0.03
11:16 1010 29.83 839 24.78 0.6 33 71 -4.1 24.6 0.707 0.028
11:17 1010 29.83 839 24.78 0.5 32.9 69 -4.5 24 0.689 0.027
11:18 1010 29.83 839 24.78 0.5 32.8 70 -4.4 24.1 0.609 0.024
11:19 1010 29.83 839 24.78 0.4 32.6 71 -4.4 24.1 0.553 0.022
11:20 1010 29.83 839 24.78 0.3 32.5 72 -4.1 24.6 0.467 0.018
11:21 1010 29.83 839 24.78 0.1 32.1 73 -4.2 24.4 0.325 0.013
11:22 1010 29.83 839 24.78 -0.1 31.9 73 -4.3 24.2 0.16 0.006
11:23 1010 29.83 839 24.78 -0.3 31.5 73 -4.5 23.9 0.03 0.001
11:24 1010 29.83 839 24.78 -0.3 31.4 72 -4.8 23.4 -0.067 -0.003
11:25 1010 29.83 839 24.78 -0.5 31.2 73 -4.7 23.5 -0.129 -0.005
11:26 1010 29.83 839 24.78 -0.5 31.1 73 -4.7 23.5 -0.204 -0.008
11:27 1010 29.83 839 24.78 -0.5 31 73 -4.8 23.4 -0.204 -0.008
11:28 1010 29.83 839 24.78 -0.5 31.1 74 -4.6 23.7 -0.215 -0.008
11:29 1010 29.83 839 24.78 -0.4 31.3 72 -4.8 23.4 -0.131 -0.005
11:30 1010 29.83 839 24.78 -0.2 31.6 71 -4.9 23.1 -0.086 -0.003
11:31 1010 29.83 839 24.78 -0.2 31.7 71 -4.7 23.5 -0.091 -0.004
11:32 1010 29.83 839 24.78 -0.2 31.6 73 -4.6 23.8 -0.058 -0.002
11:33 1010 29.83 839 24.78 -0.2 31.6 73 -4.5 24 -0.018 -0.001
11:34 1010 29.83 839 24.78 -0.2 31.7 72 -4.6 23.7 0.044 0.002
11:35 1010 29.83 839 24.78 -0.2 31.7 73 -4.5 24 0.049 0.002
11:36 1010 29.83 839 24.78 -0.2 31.6 72 -4.6 23.6 0.01 0
11:37 1010 29.83 839 24.78 -0.3 31.5 72 -4.7 23.5 -0.07 -0.003
11:38 1010 29.83 839 24.78 -0.3 31.4 72 -4.8 23.3 -0.093 -0.004
11:39 1010 29.83 839 24.78 -0.3 31.5 71 -4.9 23.2 -0.138 -0.005
11:40 1010 29.83 839 24.78 -0.3 31.5 71 -4.9 23.3 -0.138 -0.005
11:41 1010 29.83 839 24.78 -0.2 31.6 72 -4.6 23.7 -0.166 -0.007
11:42 1010 29.83 839 24.78 -0.4 31.4 73 -4.6 23.8 -0.149 -0.006
11:43 1010 29.83 839 24.78 -0.5 31.1 74 -4.5 23.9 -0.206 -0.008
11:44 1010 29.83 839 24.78 -0.6 30.9 75 -4.5 24 -0.257 -0.01
11:45 1010 29.83 839 24.78 -0.7 30.8 75 -4.5 23.9 -0.32 -0.013
11:46 1010 29.83 839 24.78 -0.8 30.6 75 -4.6 23.6 -0.365 -0.014
11:47 1010 29.83 839 24.78 -0.8 30.6 75 -4.6 23.7 -0.405 -0.016
11:48 1010 29.83 839 24.78 -0.8 30.6 76 -4.6 23.8 -0.399 -0.016
11:49 1010 29.83 839 24.78 -0.8 30.6 75 -4.6 23.7 -0.416 -0.016
11:50 1010 29.83 839 24.78 -0.8 30.5 74 -4.8 23.3 -0.518 -0.02
11:51 1010 29.83 839 24.78 -1 30.3 75 -4.8 23.4 -0.626 -0.025
11:52 1010 29.83 839 24.78 -1.1 30.1 75 -4.9 23.3 -0.677 -0.027
11:53 1010 29.83 839 24.78 -1.1 30 77 -4.7 23.5 -0.694 -0.027
11:54 1010 29.83 839 24.78 -1.2 29.9 77 -4.7 23.6 -0.762 -0.03
11:55 1010 29.83 839 24.78 -1.3 29.7 78 -4.7 23.6 -0.813 -0.032
11:56 1010 29.83 839 24.78 -1.3 29.7 78 -4.7 23.6 -0.83 -0.033
11:57 1010 29.83 839 24.78 -1.4 29.5 78 -4.7 23.5 -0.869 -0.034
11:58 1010 29.83 839 24.78 -1.3 29.6 78 -4.8 23.4 -0.881 -0.035
11:59 1010 29.83 839 24.78 -1.4 29.6 78 -4.8 23.4 -0.852 -0.034
12:00 1010 29.83 839 24.78 -1.3 29.6 78 -4.7 23.5 -0.835 -0.033
12:01 1010 29.83 839 24.78 -1.3 29.6 77 -4.9 23.3 -0.807 -0.032
12:02 1010 29.83 839 24.78 -1.2 29.8 77 -4.8 23.4 -0.722 -0.028
12:03 1010 29.83 839 24.78 -1.2 29.9 76 -4.8 23.3 -0.632 -0.025
12:04 1010 29.83 839 24.78 -1.1 30 76 -4.8 23.3 -0.569 -0.022
12:05 1010 29.83 839 24.78 -1 30.1 75 -4.9 23.2 -0.45 -0.018
12:06 1010 29.83 839 24.78 -1 30.3 75 -4.8 23.3 -0.411 -0.016
12:07 1010 29.83 839 24.78 -0.9 30.3 75 -4.9 23.3 -0.371 -0.015
12:08 1010 29.83 839 24.78 -0.9 30.4 75 -4.9 23.2 -0.343 -0.014
12:09 1010 29.83 839 24.78 -0.9 30.4 75 -4.8 23.3 -0.298 -0.012
12:10 1010 29.83 839 24.78 -0.9 30.5 76 -4.6 23.7 -0.298 -0.012
12:11 1010 29.83 839 24.78 -0.9 30.5 76 -4.6 23.7 -0.252 -0.01
12:12 1010 29.83 839 24.78 -0.8 30.5 76 -4.6 23.7 -0.23 -0.009
12:13 1010 29.83 839 24.78 -0.8 30.5 75 -4.7 23.6 -0.19 -0.007
12:14 1010 29.83 839 24.78 -0.8 30.5 75 -4.6 23.6 -0.179 -0.007
12:15 1010 29.83 839 24.78 -0.8 30.6 75 -4.6 23.7 -0.145 -0.006
12:16 1010 29.83 839 24.78 -0.8 30.6 75 -4.6 23.7 -0.094 -0.004
12:17 1010 29.83 839 24.78 -0.8 30.6 76 -4.5 23.8 -0.088 -0.003
12:18 1010 29.83 839 24.78 -0.7 30.7 76 -4.5 23.9 -0.026 -0.001
12:19 1010 29.83 839 24.78 -0.7 30.8 75 -4.6 23.8 -0.043 -0.002
12:20 1010 29.83 839 24.78 -0.7 30.8 75 -4.7 23.6 -0.032 -0.001
12:21 1010 29.83 839 24.78 -0.6 30.8 74 -4.7 23.6 -0.054 -0.002
12:22 1010 29.83 839 24.78 -0.6 30.9 74 -4.7 23.5 0.014 0.001
12:23 1010 29.83 839 24.78 -0.6 31 74 -4.7 23.5 0.031 0.001
12:24 1010 29.83 839 24.78 -0.6 31 74 -4.7 23.6 0.019 0.001
12:25 1010 29.83 839 24.78 -0.5 31 74 -4.6 23.7 0.076 0.003
12:26 1010 29.83 839 24.78 -0.5 31 74 -4.6 23.7 0.093 0.004
12:27 1010 29.83 839 24.78 -0.6 31 74 -4.6 23.7 0.121 0.005
12:28 1010 29.83 839 24.78 -0.5 31 75 -4.5 23.9 0.138 0.005
12:29 1010 29.83 839 24.78 -0.4 31.2 74 -4.5 23.9 0.212 0.008
12:30 1010 29.83 839 24.78 -0.3 31.4 74 -4.4 24 0.302 0.012
12:31 1010 29.83 839 24.78 -0.2 31.6 74 -4.3 24.3 0.427 0.017
12:32 1010 29.83 839 24.78 -0.2 31.6 74 -4.3 24.2 0.523 0.021
12:33 1010 29.83 839 24.78 -0.1 31.8 73 -4.3 24.2 0.54 0.021
12:34 1010 29.83 839 24.78 -0.1 31.9 72 -4.5 24 0.625 0.025
12:35 1010 29.83 839 24.78 -0.1 31.9 73 -4.4 24.1 0.574 0.023
12:36 1010 29.83 839 24.78 -0.1 31.8 71 -4.7 23.5 0.557 0.022
12:37 1010 29.83 839 24.78 -0.1 31.8 72 -4.6 23.8 0.523 0.021
12:38 1010 29.83 839 24.78 -0.1 31.8 71 -4.7 23.5 0.517 0.02
12:39 1010 29.83 839 24.78 -0.1 31.8 72 -4.6 23.7 0.466 0.018
12:40 1010 29.83 839 24.78 -0.2 31.7 71 -4.9 23.2 0.421 0.017
12:41 1010 29.83 839 24.78 -0.2 31.7 71 -4.9 23.2 0.37 0.015
12:42 1010 29.83 839 24.78 -0.2 31.6 72 -4.7 23.6 0.37 0.015
12:43 1010 29.83 839 24.78 -0.2 31.7 73 -4.4 24 0.376 0.015
12:44 1010 29.83 839 24.78 -0.1 31.8 73 -4.4 24.2 0.461 0.018
12:45 1010 29.83 839 24.78 -0.1 31.8 73 -4.3 24.3 0.529 0.021
12:46 1010 29.83 839 24.78 -0 31.9 73 -4.3 24.3 0.602 0.024
12:47 1010 29.83 839 24.78 -0 32 74 -4.2 24.5 0.625 0.025
12:48 1010 29.83 839 24.78 0 32 73 -4.2 24.5 0.597 0.024
12:49 1010 29.83 839 24.78 -0.1 31.8 75 -4 24.8 0.478 0.019
12:50 1010 29.83 839 24.78 -0.2 31.7 76 -3.9 25 0.433 0.017
12:51 1010 29.83 839 24.78 -0.2 31.6 77 -3.7 25.3 0.399 0.016
12:52 1010 29.83 839 24.78 -0.2 31.6 78 -3.7 25.4 0.325 0.013
12:53 1010 29.83 839 24.78 -0.3 31.5 78 -3.7 25.3 0.302 0.012
12:54 1010 29.83 839 24.78 -0.3 31.4 79 -3.6 25.6 0.251 0.01
12:55 1010 29.83 839 24.78 -0.3 31.4 79 -3.6 25.5 0.223 0.009
12:56 1010 29.83 839 24.78 -0.4 31.3 78 -3.7 25.4 0.178 0.007
12:57 1010 29.83 839 24.78 -0.4 31.2 79 -3.5 25.6 0.155 0.006
12:58 1010 29.83 839 24.78 -0.4 31.2 79 -3.6 25.5 0.115 0.005
12:59 1010 29.83 839 24.78 -0.4 31.3 78 -3.8 25.2 0.082 0.003
13:00 1010 29.83 839 24.78 -0.4 31.3 79 -3.6 25.5 0.087 0.003
13:01 1010 29.83 839 24.78 -0.4 31.3 79 -3.6 25.5 0.132 0.005
13:02 1010 29.83 839 24.78 -0.4 31.3 78 -3.7 25.3 0.127 0.005
13:03 1010 29.83 839 24.78 -0.4 31.3 78 -3.9 25.1 0.11 0.004
13:04 1010 29.83 839 24.78 -0.3 31.4 78 -3.8 25.2 0.178 0.007
13:05 1010 29.83 839 24.78 -0.3 31.5 77 -3.8 25.2 0.206 0.008
13:06 1010 29.83 839 24.78 -0.3 31.5 78 -3.6 25.4 0.257 0.01
13:07 1010 29.83 839 24.78 -0.2 31.6 77 -3.8 25.2 0.319 0.013
13:08 1010 29.83 839 24.78 -0.2 31.6 76 -3.9 25 0.297 0.012
13:09 1010 29.83 839 24.78 -0.2 31.7 77 -3.8 25.1 0.314 0.012
13:10 1010 29.83 839 24.78 -0.1 31.8 76 -3.8 25.2 0.331 0.013
13:11 1010 29.83 839 24.78 -0.1 31.9 76 -3.8 25.1 0.37 0.015
13:12 1010 29.83 839 24.78 0 32 76 -3.7 25.3 0.416 0.016
13:13 1010 29.83 839 24.78 -0 31.9 78 -3.5 25.8 0.399 0.016
13:14 1010 29.83 839 24.78 0 32 75 -3.8 25.1 0.416 0.016
13:15 1010 29.83 839 24.78 0 32 75 -3.8 25.1 0.416 0.016
13:16 1010 29.83 839 24.78 -0 31.9 76 -3.8 25.1 0.382 0.015
13:17 1010 29.83 839 24.78 -0.1 31.9 77 -3.7 25.4 0.348 0.014
13:18 1010 29.83 839 24.78 -0 32 77 -3.6 25.5 0.399 0.016
13:19 1010 29.83 839 24.78 -0 31.9 77 -3.7 25.4 0.353 0.014
13:20 1010 29.83 840 24.81 -0 31.9 76 -3.7 25.3 0.291 0.011
13:21 1010 29.83 839 24.78 -0.1 31.9 76 -3.8 25.2 0.24 0.009
13:22 1010 29.83 839 24.78 -0.1 31.8 77 -3.6 25.5 0.263 0.01
13:23 1010 29.83 840 24.81 -0.2 31.7 76 -3.8 25.2 0.166 0.007
13:24 1010 29.83 839 24.78 -0.2 31.6 77 -3.8 25.1 0.093 0.004
13:25 1010 29.83 840 24.81 -0.2 31.6 77 -3.7 25.3 0.11 0.004
13:26 1010 29.83 840 24.81 -0.2 31.6 78 -3.7 25.4 0.115 0.005
13:27 1010 29.83 840 24.81 -0.3 31.5 78 -3.7 25.4 0.115 0.005
13:28 1010 29.83 840 24.81 -0.3 31.5 78 -3.6 25.5 0.098 0.004
13:29 1010 29.83 840 24.81 -0.3 31.4 78 -3.7 25.4 0.048 0.002
13:30 1010 29.83 840 24.81 -0.3 31.4 78 -3.7 25.4 -0.003 -0
13:31 1010 29.83 840 24.81 -0.4 31.2 78 -3.7 25.3 -0.077 -0.003
13:32 1010 29.83 840 24.81 -0.4 31.3 78 -3.8 25.2 -0.1 -0.004
13:33 1010 29.83 840 24.81 -0.5 31.2 78 -3.9 25 -0.117 -0.005
13:34 1010 29.83 840 24.81 -0.5 31 78 -3.9 25 -0.207 -0.008
13:35 1010 29.83 840 24.81 -0.6 31 78 -4 24.9 -0.264 -0.01
13:36 1010 29.83 840 24.81 -0.7 30.8 79 -3.9 24.9 -0.332 -0.013
13:37 1010 29.83 840 24.81 -0.7 30.8 79 -3.9 25.1 -0.354 -0.014
13:38 1010 29.83 840 24.81 -0.7 30.7 79 -3.9 25 -0.405 -0.016
13:39 1010 29.83 840 24.81 -0.8 30.6 79 -3.9 25 -0.422 -0.017
13:40 1010 29.83 840 24.81 -0.7 30.7 80 -3.8 25.1 -0.439 -0.017
13:41 1010 29.83 840 24.81 -0.7 30.7 79 -3.9 25 -0.468 -0.018
13:42 1010 29.83 840 24.81 -0.7 30.7 79 -3.9 25 -0.479 -0.019
13:43 1010 29.83 840 24.81 -0.8 30.6 80 -3.9 25 -0.49 -0.019
13:44 1010 29.83 840 24.81 -0.8 30.5 79 -4 24.9 -0.513 -0.02
13:45 1010 29.83 840 24.81 -0.9 30.4 80 -3.9 25 -0.502 -0.02
13:46 1010 29.83 840 24.81 -0.9 30.4 80 -3.9 25 -0.519 -0.02
13:47 1010 29.83 840 24.81 -0.9 30.4 80 -3.9 24.9 -0.536 -0.021
13:48 1010 29.83 840 24.81 -0.8 30.5 80 -3.8 25.1 -0.479 -0.019
13:49 1010 29.83 840 24.81 -0.8 30.6 81 -3.7 25.4 -0.451 -0.018
13:50 1010 29.83 840 24.81 -0.8 30.5 80 -3.8 25.2 -0.422 -0.017
13:51 1010 29.83 840 24.81 -0.8 30.5 80 -3.9 25.1 -0.405 -0.016
13:52 1010 29.83 840 24.81 -0.8 30.5 80 -3.8 25.1 -0.417 -0.016
13:53 1011 29.85 840 24.81 -0.8 30.5 80 -3.8 25.1 -0.417 -0.016
13:54 1011 29.85 840 24.81 -0.8 30.6 80 -3.8 25.1 -0.411 -0.016
13:55 1011 29.85 840 24.81 -0.8 30.5 80 -3.8 25.2 -0.388 -0.015
13:56 1011 29.85 840 24.81 -0.8 30.6 81 -3.7 25.3 -0.394 -0.016
13:57 1011 29.85 840 24.81 -0.7 30.7 80 -3.8 25.1 -0.343 -0.014
13:58 1011 29.85 840 24.81 -0.6 30.9 80 -3.7 25.3 -0.303 -0.012
13:59 1011 29.85 840 24.81 -0.6 31 80 -3.6 25.5 -0.23 -0.009
14:00 1011 29.85 840 24.81 -0.5 31 79 -3.7 25.4 -0.219 -0.009
14:01 1011 29.85 840 24.81 -0.5 31.1 79 -3.7 25.3 -0.196 -0.008
14:02 1011 29.85 840 24.81 -0.5 31.1 79 -3.7 25.4 -0.258 -0.01
14:03 1011 29.85 840 24.81 -0.6 31 78 -3.9 25 -0.23 -0.009
14:04 1011 29.85 840 24.81 -0.6 31 79 -3.8 25.1 -0.252 -0.01
14:05 1011 29.85 840 24.81 -0.6 31 79 -3.8 25.1 -0.247 -0.01
14:06 1011 29.85 840 24.81 -0.5 31 79 -3.8 25.2 -0.185 -0.007
14:07 1011 29.85 840 24.81 -0.5 31.1 79 -3.8 25.2 -0.156 -0.006
14:08 1011 29.85 840 24.81 -0.5 31.2 79 -3.7 25.4 -0.122 -0.005
14:09 1011 29.85 840 24.81 -0.4 31.3 78 -3.7 25.4 -0.054 -0.002
14:10 1011 29.85 840 24.81 -0.3 31.4 78 -3.7 25.4 -0.015 -0.001
14:11 1011 29.85 840 24.81 -0.3 31.5 78 -3.7 25.4 0.031 0.001
14:12 1011 29.85 840 24.81 -0.3 31.5 77 -3.8 25.2 0.014 0.001
14:13 1011 29.85 840 24.81 -0.2 31.6 77 -3.8 25.2 0.008 0
14:14 1011 29.85 840 24.81 -0.3 31.5 78 -3.7 25.4 0.008 0
14:15 1011 29.85 840 24.81 -0.3 31.4 77 -3.8 25.1 -0.037 -0.001
14:16 1011 29.85 840 24.81 -0.3 31.4 78 -3.7 25.3 -0.009 -0
14:17 1011 29.85 840 24.81 -0.4 31.4 78 -3.8 25.2 -0.009 -0
14:18 1011 29.85 840 24.81 -0.4 31.4 78 -3.8 25.2 -0.026 -0.001
14:19 1011 29.85 840 24.81 -0.4 31.3 78 -3.8 25.1 -0.026 -0.001
14:20 1011 29.85 840 24.81 -0.4 31.3 78 -3.9 25.1 -0.083 -0.003
14:21 1011 29.85 840 24.81 -0.5 31.2 78 -3.9 25.1 -0.111 -0.004
14:22 1011 29.85 840 24.81 -0.4 31.2 78 -3.8 25.2 -0.088 -0.003
14:23 1011 29.85 840 24.81 -0.4 31.3 78 -3.8 25.2 -0.032 -0.001
14:24 1011 29.85 840 24.81 -0.3 31.4 78 -3.6 25.4 0.155 0.006
14:25 1011 29.85 840 24.81 -0.1 31.8 77 -3.7 25.4 0.331 0.013
14:26 1011 29.85 840 24.81 0 32.1 76 -3.6 25.5 0.506 0.02
14:27 1011 29.85 840 24.81 0.2 32.4 75 -3.6 25.4 0.704 0.028
14:28 1011 29.85 840 24.81 0.4 32.7 75 -3.6 25.6 0.908 0.036
14:29 1011 29.85 840 24.81 0.5 32.9 74 -3.6 25.5 1.05 0.041
14:30 1011 29.85 840 24.81 0.6 33.1 73 -3.6 25.5 1.168 0.046
14:31 1011 29.85 840 24.81 0.7 33.2 73 -3.7 25.4 1.236 0.049
14:32 1011 29.85 840 24.81 0.7 33.2 73 -3.6 25.6 1.299 0.051
14:33 1011 29.85 840 24.81 0.5 33 74 -3.6 25.6 1.248 0.049
14:34 1011 29.85 840 24.81 0.4 32.7 74 -3.7 25.3 1.078 0.042
14:35 1011 29.85 840 24.81 0.2 32.4 75 -3.8 25.2 0.868 0.034
14:36 1011 29.85 840 24.81 0.1 32.1 75 -3.9 25.1 0.738 0.029
14:37 1011 29.85 840 24.81 -0 31.9 75 -3.9 25 0.625 0.025
14:38 1011 29.85 840 24.81 -0.1 31.9 76 -3.9 25 0.517 0.02
14:39 1011 29.85 840 24.81 -0.1 31.9 76 -3.7 25.3 0.495 0.019
14:40 1011 29.85 840 24.81 -0.1 31.8 76 -3.8 25.2 0.483 0.019
14:41 1011 29.85 840 24.81 -0.2 31.7 77 -3.8 25.2 0.404 0.016
14:42 1011 29.85 840 24.81 -0.2 31.6 76 -3.9 25 0.382 0.015
14:43 1011 29.85 840 24.81 -0.3 31.5 77 -3.8 25.1 0.285 0.011
14:44 1011 29.85 840 24.81 -0.4 31.4 77 -3.9 25.1 0.234 0.009
14:45 1011 29.85 840 24.81 -0.4 31.2 77 -3.9 25 0.155 0.006
14:46 1011 29.85 840 24.81 -0.5 31.1 78 -3.9 24.9 0.07 0.003
14:47 1011 29.85 840 24.81 -0.5 31 78 -3.9 25 0.002 0
14:48 1011 29.85 840 24.81 -0.6 30.8 78 -4 24.9 -0.06 -0.002
14:49 1011 29.85 840 24.81 -0.7 30.8 79 -3.9 24.9 -0.139 -0.005
14:50 1011 29.85 840 24.81 -0.8 30.6 79 -4 24.9 -0.179 -0.007
14:51 1011 29.85 840 24.81 -0.8 30.6 79 -4 24.9 -0.219 -0.009
14:52 1011 29.85 840 24.81 -0.8 30.5 80 -3.9 25 -0.281 -0.011
14:53 1011 29.85 840 24.81 -0.9 30.5 80 -3.9 25 -0.315 -0.012
14:54 1011 29.85 841 24.83 -0.9 30.4 80 -3.9 24.9 -0.366 -0.014
14:55 1011 29.85 840 24.81 -0.9 30.3 80 -4 24.8 -0.405 -0.016
14:56 1011 29.85 841 24.83 -1 30.3 80 -4 24.8 -0.468 -0.018
14:57 1011 29.85 841 24.83 -1 30.2 80 -4 24.8 -0.53 -0.021
14:58 1011 29.85 841 24.83 -1 30.1 80 -4 24.8 -0.57 -0.022
14:59 1011 29.85 841 24.83 -1.1 30.1 81 -4 24.8 -0.581 -0.023
15:00 1011 29.85 841 24.83 -1.1 30 81 -4 24.8 -0.649 -0.026
15:01 1011 29.85 841 24.83 -1.1 30 81 -4 24.8 -0.688 -0.027
15:02 1011 29.85 841 24.83 -1.2 29.9 81 -4 24.9 -0.717 -0.028
15:03 1011 29.85 841 24.83 -1.2 29.8 82 -3.9 24.9 -0.711 -0.028
15:04 1011 29.85 841 24.83 -1.2 29.8 82 -3.9 24.9 -0.751 -0.03
15:05 1011 29.85 841 24.83 -1.2 29.8 82 -3.9 24.9 -0.807 -0.032
15:06 1011 29.85 841 24.83 -1.3 29.7 82 -4 24.9 -0.796 -0.031
15:07 1011 29.85 841 24.83 -1.3 29.7 82 -4 24.9 -0.841 -0.033
15:08 1011 29.85 841 24.83 -1.3 29.6 82 -4 24.9 -0.853 -0.034
15:09 1011 29.85 841 24.83 -1.4 29.5 83 -4 24.8 -0.966 -0.038
15:10 1011 29.85 841 24.83 -1.4 29.4 83 -4 24.8 -0.954 -0.038
15:11 1011 29.85 841 24.83 -1.4 29.4 83 -4 24.8 -0.966 -0.038
15:12 1011 29.85 841 24.83 -1.5 29.4 83 -4 24.8 -0.971 -0.038
15:13 1011 29.85 841 24.83 -1.5 29.4 83 -4 24.8 -0.966 -0.038
15:14 1011 29.85 841 24.83 -1.5 29.4 83 -4 24.8 -1.028 -0.04
15:15 1011 29.85 841 24.83 -1.6 29.2 83 -4.1 24.7 -1.073 -0.042
15:16 1011 29.85 841 24.83 -1.6 29.1 84 -4 24.7 -1.13 -0.044
15:17 1011 29.85 841 24.83 -1.7 29 84 -4.1 24.7 -1.17 -0.046
15:18 1011 29.85 841 24.83 -1.7 28.9 83 -4.2 24.5 -1.266 -0.05
15:19 1011 29.85 841 24.83 -1.8 28.8 85 -4 24.8 -1.339 -0.053
15:20 1011 29.85 841 24.83 -1.8 28.8 85 -4 24.9 -1.356 -0.053
15:21 1011 29.85 841 24.83 -1.8 28.8 85 -4 24.8 -1.351 -0.053
15:22 1012 29.88 841 24.83 -1.8 28.7 85 -4 24.7 -1.373 -0.054
15:23 1012 29.88 841 24.83 -1.8 28.7 85 -4.1 24.7 -1.413 -0.056
15:24 1012 29.88 841 24.83 -1.9 28.6 84 -4.2 24.5 -1.39 -0.055
15:25 1012 29.88 841 24.83 -1.9 28.5 84 -4.3 24.3 -1.441 -0.057
15:26 1012 29.88 841 24.83 -2 28.3 85 -4.3 24.3 -1.538 -0.061
15:27 1012 29.88 841 24.83 -2.1 28.1 85 -4.3 24.3 -1.6 -0.063
15:28 1012 29.88 841 24.83 -2.2 28.1 86 -4.1 24.6 -1.611 -0.063
15:29 1012 29.88 841 24.83 -2 28.3 86 -4 24.7 -1.549 -0.061
15:30 1012 29.88 841 24.83 -2 28.5 86 -4.1 24.7 -1.481 -0.058
15:31 1012 29.88 841 24.83 -1.9 28.5 85 -4.1 24.6 -1.453 -0.057
15:32 1012 29.88 841 24.83 -1.9 28.6 84 -4.2 24.5 -1.43 -0.056
15:33 1012 29.88 841 24.83 -1.9 28.7 84 -4.1 24.5 -1.453 -0.057
15:34 1012 29.88 841 24.83 -1.8 28.7 84 -4.1 24.6 -1.373 -0.054
15:35 1012 29.88 841 24.83 -1.8 28.8 84 -4.2 24.4 -1.362 -0.054
15:36 1012 29.88 841 24.83 -1.8 28.7 83 -4.3 24.3 -1.362 -0.054
15:37 1012 29.88 841 24.83 -1.9 28.6 84 -4.3 24.3 -1.447 -0.057
15:38 1012 29.88 841 24.83 -2 28.5 84 -4.3 24.3 -1.538 -0.061
15:39 1012 29.88 841 24.83 -2 28.4 84 -4.3 24.2 -1.56 -0.061
15:40 1012 29.88 841 24.83 -2.1 28.3 84 -4.5 24 -1.651 -0.065
15:41 1012 29.88 841 24.83 -2.2 28.1 85 -4.4 24.1 -1.747 -0.069
15:42 1012 29.88 841 24.83 -2.2 28 85 -4.4 24 -1.809 -0.071
15:43 1012 29.88 841 24.83 -2.2 28 86 -4.3 24.2 -1.849 -0.073
15:44 1012 29.88 841 24.83 -2.3 28 85 -4.4 24.1 -1.86 -0.073
15:45 1012 29.88 841 24.83 -2.3 27.9 86 -4.3 24.2 -1.836 -0.072
15:46 1012 29.88 841 24.83 -2.2 28 86 -4.3 24.3 -1.825 -0.072
15:47 1012 29.88 841 24.83 -2.2 28.1 86 -4.3 24.3 -1.751 -0.069
15:48 1012 29.88 841 24.83 -2.2 28.1 86 -4.2 24.4 -1.733 -0.068
15:49 1012 29.88 841 24.83 -2.1 28.2 85 -4.3 24.3 -1.705 -0.067
15:50 1012 29.88 841 24.83 -2.1 28.2 86 -4.2 24.5 -1.733 -0.068
15:51 1012 29.88 841 24.83 -2.1 28.2 85 -4.2 24.4 -1.727 -0.068
15:52 1012 29.88 841 24.83 -2.1 28.2 85 -4.3 24.3 -1.716 -0.068
15:53 1012 29.88 841 24.83 -2.1 28.1 85 -4.3 24.3 -1.738 -0.068
15:54 1012 29.88 841 24.83 -2.1 28.2 86 -4.2 24.4 -1.704 -0.067
15:55 1012 29.88 841 24.83 -2.1 28.3 85 -4.2 24.5 -1.681 -0.066
15:56 1012 29.88 841 24.83 -2.1 28.2 85 -4.3 24.3 -1.691 -0.067
15:57 1012 29.88 841 24.83 -2.1 28.2 86 -4.2 24.4 -1.679 -0.066
15:58 1012 29.88 841 24.83 -2 28.4 86 -4.1 24.6 -1.606 -0.063
15:59 1012 29.88 841 24.83 -2 28.5 86 -4 24.7 -1.587 -0.062
16:00 1012 29.88 841 24.83 -2 28.5 85 -4.1 24.6 -1.53 -0.06
16:01 1012 29.88 841 24.83 -1.9 28.5 85 -4.2 24.5 -1.564 -0.062
16:02 1012 29.88 841 24.83 -2 28.4 84 -4.3 24.3 -1.593 -0.063
16:03 1012 29.88 841 24.83 -2.1 28.3 85 -4.3 24.2 -1.649 -0.065
16:04 1012 29.88 841 24.83 -2.1 28.2 85 -4.3 24.3 -1.672 -0.066
16:05 1012 29.88 841 24.83 -2.1 28.2 85 -4.3 24.3 -1.682 -0.066
16:06 1012 29.88 841 24.83 -2.1 28.2 85 -4.2 24.4 -1.694 -0.067
16:07 1012 29.88 841 24.83 -2.1 28.2 86 -4.2 24.4 -1.677 -0.066
16:08 1012 29.88 841 24.83 -2.1 28.2 86 -4.2 24.5 -1.664 -0.066
16:09 1012 29.88 841 24.83 -2.1 28.3 85 -4.2 24.5 -1.659 -0.065
16:10 1012 29.88 841 24.83 -2.1 28.3 86 -4.1 24.5 -1.67 -0.066
16:11 1012 29.88 841 24.83 -2.1 28.3 86 -4.1 24.5 -1.647 -0.065
16:12 1012 29.88 841 24.83 -2.1 28.3 85 -4.2 24.5 -1.652 -0.065
16:13 1012 29.88 841 24.83 -2.1 28.3 86 -4.2 24.5 -1.635 -0.064
16:14 1012 29.88 841 24.83 -2.1 28.2 86 -4.2 24.5 -1.669 -0.066
16:15 1012 29.88 841 24.83 -2 28.3 86 -4.1 24.5 -1.623 -0.064
16:16 1012 29.88 841 24.83 -2.1 28.3 86 -4.2 24.5 -1.668 -0.066
16:17 1012 29.88 841 24.83 -2.1 28.2 85 -4.2 24.4 -1.628 -0.064
16:18 1012 29.88 841 24.83 -2.1 28.2 85 -4.3 24.3 -1.708 -0.067
16:19 1012 29.88 841 24.83 -2.2 28 85 -4.3 24.2 -1.787 -0.07
16:20 1012 29.88 841 24.83 -2.3 27.9 84 -4.5 23.8 -1.86 -0.073
16:21 1012 29.88 841 24.83 -2.5 27.4 84 -4.9 23.1 -2.149 -0.085
16:22 1012 29.88 841 24.83 -2.7 27.1 86 -4.8 23.4 -2.291 -0.09
16:23 1012 29.88 841 24.83 -2.8 27 87 -4.7 23.6 -2.387 -0.094
16:24 1012 29.88 841 24.83 -2.7 27.1 88 -4.5 23.9 -2.37 -0.093
16:25 1012 29.88 841 24.83 -2.7 27.1 88 -4.4 24 -2.268 -0.089
16:26 1012 29.88 841 24.83 -2.6 27.3 88 -4.4 24.1 -2.216 -0.087
16:27 1012 29.88 841 24.83 -2.6 27.3 87 -4.5 23.9 -2.284 -0.09
16:28 1012 29.88 841 24.83 -2.6 27.2 88 -4.4 24.1 -2.267 -0.089
16:29 1012 29.88 841 24.83 -2.7 27.2 88 -4.4 24 -2.313 -0.091
16:30 1012 29.88 841 24.83 -2.7 27.2 88 -4.4 24.1 -2.284 -0.09
16:31 1012 29.88 841 24.83 -2.6 27.3 88 -4.3 24.3 -2.239 -0.088
16:32 1012 29.88 841 24.83 -2.6 27.4 88 -4.3 24.3 -2.154 -0.085
16:33 1012 29.88 842 24.86 -2.5 27.4 88 -4.2 24.4 -2.137 -0.084
16:34 1012 29.88 842 24.86 -2.5 27.5 88 -4.2 24.4 -2.069 -0.081
16:35 1012 29.88 842 24.86 -2.5 27.6 87 -4.3 24.2 -2.069 -0.081
16:36 1012 29.88 842 24.86 -2.5 27.5 87 -4.3 24.3 -2.091 -0.082
16:37 1012 29.88 842 24.86 -2.4 27.6 88 -4.2 24.4 -2.074 -0.082
16:38 1012 29.88 842 24.86 -2.5 27.5 86 -4.5 23.9 -2.176 -0.086
16:39 1012 29.88 842 24.86 -2.7 27.2 85 -4.9 23.1 -2.34 -0.092
16:40 1012 29.88 842 24.86 -2.9 26.8 86 -4.9 23.1 -2.51 -0.099
16:41 1012 29.88 842 24.86 -3.2 26.3 85 -5.4 22.3 -2.782 -0.11
16:42 1012 29.88 842 24.86 -3.2 26.2 88 -5 23 -2.844 -0.112
16:43 1012 29.88 842 24.86 -3.2 26.2 88 -5 23 -2.816 -0.111
16:44 1012 29.88 842 24.86 -3.2 26.2 89 -4.8 23.3 -2.839 -0.112
16:45 1012 29.88 842 24.86 -3.2 26.3 87 -5 22.9 -2.805 -0.11
16:46 1012 29.88 842 24.86 -3.3 26.1 88 -5.1 22.9 -2.877 -0.113
16:47 1012 29.88 842 24.86 -3.4 25.9 87 -5.2 22.6 -2.979 -0.117
16:48 1012 29.88 842 24.86 -3.4 25.8 88 -5.2 22.6 -3.075 -0.121
16:49 1013 29.91 842 24.86 -3.4 25.8 88 -5.1 22.8 -3.085 -0.121
16:50 1012 29.88 842 24.86 -3.4 25.8 88 -5.1 22.8 -3.068 -0.121
16:51 1013 29.91 842 24.86 -3.5 25.8 89 -5.1 22.9 -3.068 -0.121
16:52 1013 29.91 842 24.86 -3.4 25.8 89 -5 23 -3.039 -0.12
16:53 1013 29.91 842 24.86 -3.4 25.9 89 -4.9 23.2 -2.966 -0.117
16:54 1013 29.91 842 24.86 -3.3 26 90 -4.8 23.4 -2.892 -0.114
16:55 1013 29.91 842 24.86 -3.3 26.1 89 -4.8 23.4 -2.846 -0.112
16:56 1013 29.91 842 24.86 -3.2 26.2 89 -4.8 23.4 -2.812 -0.111
16:57 1013 29.91 842 24.86 -3.2 26.2 89 -4.8 23.4 -2.801 -0.11
16:58 1013 29.91 842 24.86 -3.2 26.2 89 -4.8 23.3 -2.851 -0.112
16:59 1013 29.91 842 24.86 -3.3 26.1 89 -4.8 23.3 -2.846 -0.112
17:00 1013 29.91 842 24.86 -3.3 26.1 89 -4.9 23.2 -2.84 -0.112
17:01 1013 29.91 842 24.86 -3.3 26.1 89 -4.9 23.2 -2.885 -0.114
17:02 1013 29.91 842 24.86 -3.3 26.1 89 -4.8 23.3 -2.93 -0.115
17:03 1013 29.91 842 24.86 -3.3 26.1 89 -4.8 23.3 -2.89 -0.114
17:04 1013 29.91 842 24.86 -3.3 26.1 89 -4.8 23.4 -2.867 -0.113